sensor_id;sensor_type;location;lat;lon;timestamp;pressure;altitude;pressure_sealevel;temperature;humidity
48527;BME280;34317;51.660;5.824;2023-03-16T00:01:44;101758.22;;;8.07;46.98
48527;BME280;34317;51.660;5.824;2023-03-16T00:04:11;101751.16;;;8.08;46.68
48527;BME280;34317;51.660;5.824;2023-03-16T00:06:38;101756.41;;;8.11;46.74
48527;BME280;34317;51.660;5.824;2023-03-16T00:09:06;101754.59;;;8.13;46.91
48527;BME280;34317;51.660;5.824;2023-03-16T00:11:33;101751.06;;;8.14;46.85
48527;BME280;34317;51.660;5.824;2023-03-16T00:14:00;101751.06;;;8.14;46.91
48527;BME280;34317;51.660;5.824;2023-03-16T00:16:30;101747.50;;;8.15;46.93
48527;BME280;34317;51.660;5.824;2023-03-16T00:18:57;101749.25;;;8.16;47.10
48527;BME280;34317;51.660;5.824;2023-03-16T00:21:25;101751.88;;;8.17;47.14
48527;BME280;34317;51.660;5.824;2023-03-16T00:23:52;101758.88;;;8.18;46.83
48527;BME280;34317;51.660;5.824;2023-03-16T00:26:19;101757.06;;;8.21;46.92
48527;BME280;34317;51.660;5.824;2023-03-16T00:28:46;101752.66;;;8.21;46.91
48527;BME280;34317;51.660;5.824;2023-03-16T00:31:13;101755.28;;;8.23;47.18
48527;BME280;34317;51.660;5.824;2023-03-16T00:33:41;101748.28;;;8.22;47.04
48527;BME280;34317;51.660;5.824;2023-03-16T00:36:11;101739.44;;;8.23;47.14
48527;BME280;34317;51.660;5.824;2023-03-16T00:38:40;101742.06;;;8.24;47.01
48527;BME280;34317;51.660;5.824;2023-03-16T00:41:12;101731.50;;;8.24;47.37
48527;BME280;34317;51.660;5.824;2023-03-16T00:43:41;101731.50;;;8.24;47.07
48527;BME280;34317;51.660;5.824;2023-03-16T00:46:12;101732.34;;;8.25;47.17
48527;BME280;34317;51.660;5.824;2023-03-16T00:48:43;101727.97;;;8.25;47.27
48527;BME280;34317;51.660;5.824;2023-03-16T00:51:13;101718.28;;;8.26;47.26
48527;BME280;34317;51.660;5.824;2023-03-16T00:53:43;101719.13;;;8.26;47.43
48527;BME280;34317;51.660;5.824;2023-03-16T00:56:11;101714.78;;;8.25;47.11
48527;BME280;34317;51.660;5.824;2023-03-16T00:58:40;101708.56;;;8.26;47.30
48527;BME280;34317;51.660;5.824;2023-03-16T01:01:18;101703.28;;;8.26;47.46
48527;BME280;34317;51.660;5.824;2023-03-16T01:03:47;101698.03;;;8.26;47.39
48527;BME280;34317;51.660;5.824;2023-03-16T01:06:16;101696.31;;;8.25;47.33
48527;BME280;34317;51.660;5.824;2023-03-16T01:08:44;101696.31;;;8.25;47.35
48527;BME280;34317;51.660;5.824;2023-03-16T01:11:16;101698.03;;;8.26;47.34
48527;BME280;34317;51.660;5.824;2023-03-16T01:13:44;101695.38;;;8.26;47.54
48527;BME280;34317;51.660;5.824;2023-03-16T01:16:13;101694.53;;;8.24;47.55
48527;BME280;34317;51.660;5.824;2023-03-16T01:18:41;101687.56;;;8.23;47.46
48527;BME280;34317;51.660;5.824;2023-03-16T01:21:09;101684.03;;;8.21;47.49
48527;BME280;34317;51.660;5.824;2023-03-16T01:23:40;101679.66;;;8.22;47.32
48527;BME280;34317;51.660;5.824;2023-03-16T01:26:07;101680.56;;;8.19;47.75
48527;BME280;34317;51.660;5.824;2023-03-16T01:28:35;101680.56;;;8.19;47.73
48527;BME280;34317;51.660;5.824;2023-03-16T01:31:07;101677.09;;;8.17;47.86
48527;BME280;34317;51.660;5.824;2023-03-16T01:33:36;101671.81;;;8.17;47.44
48527;BME280;34317;51.660;5.824;2023-03-16T01:36:10;101664.84;;;8.16;47.72
48527;BME280;34317;51.660;5.824;2023-03-16T01:38:45;101665.72;;;8.15;47.82
48527;BME280;34317;51.660;5.824;2023-03-16T01:41:13;101658.72;;;8.14;47.80
48527;BME280;34317;51.660;5.824;2023-03-16T01:43:41;101662.25;;;8.13;47.53
48527;BME280;34317;51.660;5.824;2023-03-16T01:46:27;101654.34;;;8.13;47.57
48527;BME280;34317;51.660;5.824;2023-03-16T01:49:01;101652.59;;;8.12;47.83
48527;BME280;34317;51.660;5.824;2023-03-16T01:54:29;101650.09;;;8.06;47.87
48527;BME280;34317;51.660;5.824;2023-03-16T01:57:23;101655.38;;;8.04;47.75
48527;BME280;34317;51.660;5.824;2023-03-16T02:02:50;101644.06;;;8.01;47.80
48527;BME280;34317;51.660;5.824;2023-03-16T02:05:39;101640.56;;;7.98;47.88
48527;BME280;34317;51.660;5.824;2023-03-16T02:08:12;101635.28;;;7.98;47.87
48527;BME280;34317;51.660;5.824;2023-03-16T02:10:39;101645.84;;;7.98;48.11
48527;BME280;34317;51.660;5.824;2023-03-16T02:13:07;101641.47;;;7.97;48.09
48527;BME280;34317;51.660;5.824;2023-03-16T02:15:35;101638.84;;;7.97;47.89
48527;BME280;34317;51.660;5.824;2023-03-16T02:18:04;101633.56;;;7.97;48.22
48527;BME280;34317;51.660;5.824;2023-03-16T02:21:54;101623.91;;;7.96;48.09
48527;BME280;34317;51.660;5.824;2023-03-16T02:23:51;101613.34;;;7.96;47.88
48527;BME280;34317;51.660;5.824;2023-03-16T02:26:25;101606.34;;;7.95;48.08
48527;BME280;34317;51.660;5.824;2023-03-16T02:29:05;101616.91;;;7.95;48.00
48527;BME280;34317;51.660;5.824;2023-03-16T02:31:38;101609.00;;;7.95;48.28
48527;BME280;34317;51.660;5.824;2023-03-16T02:34:07;101614.28;;;7.94;48.09
48527;BME280;34317;51.660;5.824;2023-03-16T02:36:36;101614.25;;;7.95;48.25
48527;BME280;34317;51.660;5.824;2023-03-16T02:39:04;101600.16;;;7.96;48.22
48527;BME280;34317;51.660;5.824;2023-03-16T02:41:40;101608.91;;;7.98;48.66
48527;BME280;34317;51.660;5.824;2023-03-16T02:44:12;101615.94;;;7.99;48.32
48527;BME280;34317;51.660;5.824;2023-03-16T02:46:44;101613.25;;;8.01;48.28
48527;BME280;34317;51.660;5.824;2023-03-16T02:49:28;101604.41;;;8.04;48.45
48527;BME280;34317;51.660;5.824;2023-03-16T02:51:58;101606.16;;;8.05;48.50
48527;BME280;34317;51.660;5.824;2023-03-16T02:54:25;101602.59;;;8.06;48.30
48527;BME280;34317;51.660;5.824;2023-03-16T02:56:52;101614.88;;;8.08;48.12
48527;BME280;34317;51.660;5.824;2023-03-16T02:59:21;101606.91;;;8.10;48.66
48527;BME280;34317;51.660;5.824;2023-03-16T03:01:48;101607.78;;;8.10;48.36
48527;BME280;34317;51.660;5.824;2023-03-16T03:04:16;101605.13;;;8.12;48.37
48527;BME280;34317;51.660;5.824;2023-03-16T03:06:43;101610.31;;;8.15;48.45
48527;BME280;34317;51.660;5.824;2023-03-16T03:09:10;101596.22;;;8.16;48.26
48527;BME280;34317;51.660;5.824;2023-03-16T03:11:38;101600.59;;;8.17;48.25
48527;BME280;34317;51.660;5.824;2023-03-16T03:14:06;101601.41;;;8.19;48.20
48527;BME280;34317;51.660;5.824;2023-03-16T03:16:36;101611.97;;;8.19;48.52
48527;BME280;34317;51.660;5.824;2023-03-16T03:19:03;101601.41;;;8.19;48.53
48527;BME280;34317;51.660;5.824;2023-03-16T03:21:34;101603.09;;;8.23;48.67
48527;BME280;34317;51.660;5.824;2023-03-16T03:24:01;101604.81;;;8.24;48.31
48527;BME280;34317;51.660;5.824;2023-03-16T03:26:28;101601.28;;;8.25;48.50
48527;BME280;34317;51.660;5.824;2023-03-16T03:28:59;101599.53;;;8.24;48.77
48527;BME280;34317;51.660;5.824;2023-03-16T03:31:26;101597.81;;;8.23;48.86
48527;BME280;34317;51.660;5.824;2023-03-16T03:33:53;101589.91;;;8.23;48.55
48527;BME280;34317;51.660;5.824;2023-03-16T03:36:21;101587.28;;;8.23;48.61
48527;BME280;34317;51.660;5.824;2023-03-16T03:38:48;101588.16;;;8.22;49.01
48527;BME280;34317;51.660;5.824;2023-03-16T03:41:18;101583.78;;;8.21;48.74
48527;BME280;34317;51.660;5.824;2023-03-16T03:43:45;101576.78;;;8.20;48.74
48527;BME280;34317;51.660;5.824;2023-03-16T03:46:15;101579.41;;;8.20;48.87
48527;BME280;34317;51.660;5.824;2023-03-16T03:48:42;101580.31;;;8.19;48.98
48527;BME280;34317;51.660;5.824;2023-03-16T03:51:10;101578.59;;;8.18;48.74
48527;BME280;34317;51.660;5.824;2023-03-16T03:53:45;101575.13;;;8.16;48.92
48527;BME280;34317;51.660;5.824;2023-03-16T03:56:18;101568.94;;;8.15;49.17
48527;BME280;34317;51.660;5.824;2023-03-16T03:58:45;101566.38;;;8.14;49.10
48527;BME280;34317;51.660;5.824;2023-03-16T04:01:19;101566.38;;;8.14;49.09
48527;BME280;34317;51.660;5.824;2023-03-16T04:03:47;101560.19;;;8.13;49.08
48527;BME280;34317;51.660;5.824;2023-03-16T04:06:15;101559.34;;;8.13;49.23
48527;BME280;34317;51.660;5.824;2023-03-16T04:08:42;101568.19;;;8.12;48.87
48527;BME280;34317;51.660;5.824;2023-03-16T04:11:13;101560.28;;;8.12;49.25
48527;BME280;34317;51.660;5.824;2023-03-16T04:13:40;101558.50;;;8.12;48.92
48527;BME280;34317;51.660;5.824;2023-03-16T04:16:08;101559.34;;;8.13;49.18
48527;BME280;34317;51.660;5.824;2023-03-16T04:18:41;101552.34;;;8.12;49.22
48527;BME280;34317;51.660;5.824;2023-03-16T04:21:14;101555.88;;;8.11;49.20
48527;BME280;34317;51.660;5.824;2023-03-16T04:23:45;101558.53;;;8.11;49.07
48527;BME280;34317;51.660;5.824;2023-03-16T04:26:12;101566.44;;;8.11;49.07
48527;BME280;34317;51.660;5.824;2023-03-16T04:28:42;101563.81;;;8.09;49.03
48527;BME280;34317;51.660;5.824;2023-03-16T04:31:13;101572.59;;;8.10;49.13
48527;BME280;34317;51.660;5.824;2023-03-16T04:33:44;101566.44;;;8.11;49.26
48527;BME280;34317;51.660;5.824;2023-03-16T04:36:12;101558.53;;;8.09;49.06
48527;BME280;34317;51.660;5.824;2023-03-16T04:38:40;101552.41;;;8.09;49.27
48527;BME280;34317;51.660;5.824;2023-03-16T04:41:09;101552.41;;;8.09;49.25
48527;BME280;34317;51.660;5.824;2023-03-16T04:43:43;101550.66;;;8.08;49.22
48527;BME280;34317;51.660;5.824;2023-03-16T04:46:20;101555.06;;;8.09;49.01
48527;BME280;34317;51.660;5.824;2023-03-16T04:48:47;101550.66;;;8.08;48.99
48527;BME280;34317;51.660;5.824;2023-03-16T04:51:14;101545.38;;;8.08;49.55
48527;BME280;34317;51.660;5.824;2023-03-16T04:53:50;101541.00;;;8.08;49.23
48527;BME280;34317;51.660;5.824;2023-03-16T04:56:27;101540.06;;;8.09;49.36
48527;BME280;34317;51.660;5.824;2023-03-16T04:58:59;101535.66;;;8.10;49.29
48527;BME280;34317;51.660;5.824;2023-03-16T05:01:30;101534.78;;;8.11;49.25
48527;BME280;34317;51.660;5.824;2023-03-16T05:04:01;101525.06;;;8.11;49.34
48527;BME280;34317;51.660;5.824;2023-03-16T05:06:30;101525.97;;;8.12;49.24
48527;BME280;34317;51.660;5.824;2023-03-16T05:09:00;101528.59;;;8.12;49.19
48527;BME280;34317;51.660;5.824;2023-03-16T05:11:28;101532.97;;;8.13;49.05
48527;BME280;34317;51.660;5.824;2023-03-16T05:13:58;101529.44;;;8.14;49.45
48527;BME280;34317;51.660;5.824;2023-03-16T05:16:25;101529.44;;;8.14;49.41
48527;BME280;34317;51.660;5.824;2023-03-16T05:18:53;101528.50;;;8.15;49.30
48527;BME280;34317;51.660;5.824;2023-03-16T05:21:20;101530.25;;;8.16;49.45
48527;BME280;34317;51.660;5.824;2023-03-16T05:23:57;101523.22;;;8.16;49.47
48527;BME280;34317;51.660;5.824;2023-03-16T05:26:24;101527.63;;;8.16;49.16
48527;BME280;34317;51.660;5.824;2023-03-16T05:28:55;101525.88;;;8.15;49.10
48527;BME280;34317;51.660;5.824;2023-03-16T05:31:24;101520.59;;;8.15;49.15
48527;BME280;34317;51.660;5.824;2023-03-16T05:33:57;101519.75;;;8.14;49.12
48527;BME280;34317;51.660;5.824;2023-03-16T05:36:24;101506.50;;;8.16;49.47
48527;BME280;34317;51.660;5.824;2023-03-16T05:38:56;101518.78;;;8.17;49.61
48527;BME280;34317;51.660;5.824;2023-03-16T05:41:35;101517.06;;;8.16;49.37
48527;BME280;34317;51.660;5.824;2023-03-16T05:44:07;101519.72;;;8.16;49.44
48527;BME280;34317;51.660;5.824;2023-03-16T05:47:01;101523.19;;;8.18;49.53
48527;BME280;34317;51.660;5.824;2023-03-16T05:49:30;101520.53;;;8.18;49.62
48527;BME280;34317;51.660;5.824;2023-03-16T05:51:59;101520.53;;;8.18;49.22
48527;BME280;34317;51.660;5.824;2023-03-16T05:54:27;101524.03;;;8.18;49.49
48527;BME280;34317;51.660;5.824;2023-03-16T05:56:54;101518.72;;;8.20;49.44
48527;BME280;34317;51.660;5.824;2023-03-16T05:59:21;101524.00;;;8.20;49.41
48527;BME280;34317;51.660;5.824;2023-03-16T06:01:52;101522.19;;;8.22;49.46
48527;BME280;34317;51.660;5.824;2023-03-16T06:04:20;101521.31;;;8.23;49.46
48527;BME280;34317;51.660;5.824;2023-03-16T06:06:48;101525.66;;;8.24;49.61
48527;BME280;34317;51.660;5.824;2023-03-16T06:09:19;101517.75;;;8.24;49.38
48527;BME280;34317;51.660;5.824;2023-03-16T06:11:47;101516.84;;;8.25;49.50
48527;BME280;34317;51.660;5.824;2023-03-16T06:14:16;101513.28;;;8.26;49.48
48527;BME280;34317;51.660;5.824;2023-03-16T06:16:44;101506.19;;;8.28;49.67
48527;BME280;34317;51.660;5.824;2023-03-16T06:19:12;101507.03;;;8.30;49.44
48527;BME280;34317;51.660;5.824;2023-03-16T06:21:41;101501.66;;;8.35;49.36
48527;BME280;34317;51.660;5.824;2023-03-16T06:24:10;101507.78;;;8.35;49.69
48527;BME280;34317;51.660;5.824;2023-03-16T06:26:38;101504.25;;;8.36;49.62
48527;BME280;34317;51.660;5.824;2023-03-16T06:29:07;101502.44;;;8.38;49.75
48527;BME280;34317;51.660;5.824;2023-03-16T06:31:36;101498.88;;;8.39;49.75
48527;BME280;34317;51.660;5.824;2023-03-16T06:34:05;101505.91;;;8.41;49.65
48527;BME280;34317;51.660;5.824;2023-03-16T06:36:32;101504.13;;;8.43;50.03
48527;BME280;34317;51.660;5.824;2023-03-16T06:39:02;101509.34;;;8.46;49.99
48527;BME280;34317;51.660;5.824;2023-03-16T06:41:41;101509.25;;;8.49;49.85
48527;BME280;34317;51.660;5.824;2023-03-16T06:44:12;101506.56;;;8.50;49.98
48527;BME280;34317;51.660;5.824;2023-03-16T06:46:50;101514.44;;;8.52;50.05
48527;BME280;34317;51.660;5.824;2023-03-16T06:49:17;101504.72;;;8.54;49.71
48527;BME280;34317;51.660;5.824;2023-03-16T06:51:44;101510.81;;;8.56;49.85
48527;BME280;34317;51.660;5.824;2023-03-16T06:54:11;101506.41;;;8.56;49.82
48527;BME280;34317;51.660;5.824;2023-03-16T06:56:39;101515.13;;;8.58;49.97
48527;BME280;34317;51.660;5.824;2023-03-16T06:59:06;101507.19;;;8.60;50.14
48527;BME280;34317;51.660;5.824;2023-03-16T07:01:35;101514.13;;;8.64;50.25
48527;BME280;34317;51.660;5.824;2023-03-16T07:04:03;101507.91;;;8.67;50.21
48527;BME280;34317;51.660;5.824;2023-03-16T07:06:31;101522.78;;;8.69;50.00
48527;BME280;34317;51.660;5.824;2023-03-16T07:08:59;101518.34;;;8.71;50.08
48527;BME280;34317;51.660;5.824;2023-03-16T07:11:32;101519.16;;;8.73;50.46
48527;BME280;34317;51.660;5.824;2023-03-16T07:13:59;101515.63;;;8.74;50.33
48527;BME280;34317;51.660;5.824;2023-03-16T07:16:29;101519.13;;;8.75;50.16
48527;BME280;34317;51.660;5.824;2023-03-16T07:19:00;101504.97;;;8.77;50.37
48527;BME280;34317;51.660;5.824;2023-03-16T07:21:28;101505.84;;;8.78;50.06
48527;BME280;34317;51.660;5.824;2023-03-16T07:23:55;101504.06;;;8.79;50.32
48527;BME280;34317;51.660;5.824;2023-03-16T07:26:27;101503.13;;;8.80;50.20
48527;BME280;34317;51.660;5.824;2023-03-16T07:28:58;101492.56;;;8.80;50.48
48527;BME280;34317;51.660;5.824;2023-03-16T07:31:26;101495.19;;;8.81;50.56
48527;BME280;34317;51.660;5.824;2023-03-16T07:33:55;101494.25;;;8.84;50.32
48527;BME280;34317;51.660;5.824;2023-03-16T07:36:32;101497.72;;;8.86;50.44
48527;BME280;34317;51.660;5.824;2023-03-16T07:39:00;101498.53;;;8.88;50.52
48527;BME280;34317;51.660;5.824;2023-03-16T07:41:27;101506.34;;;8.91;50.53
48527;BME280;34317;51.660;5.824;2023-03-16T07:44:12;101507.22;;;8.93;50.27
48527;BME280;34317;51.660;5.824;2023-03-16T07:46:40;101509.75;;;8.96;50.40
48527;BME280;34317;51.660;5.824;2023-03-16T07:49:08;101509.69;;;8.99;50.60
48527;BME280;34317;51.660;5.824;2023-03-16T07:51:38;101499.00;;;9.02;50.56
48527;BME280;34317;51.660;5.824;2023-03-16T07:54:06;101498.94;;;9.05;50.54
48527;BME280;34317;51.660;5.824;2023-03-16T07:56:35;101504.13;;;9.08;50.60
48527;BME280;34317;51.660;5.824;2023-03-16T07:59:25;101503.22;;;9.09;50.79
48527;BME280;34317;51.660;5.824;2023-03-16T08:01:53;101500.50;;;9.12;50.62
48527;BME280;34317;51.660;5.824;2023-03-16T08:04:20;101498.66;;;9.14;50.71
48527;BME280;34317;51.660;5.824;2023-03-16T08:06:50;101504.81;;;9.15;50.59
48527;BME280;34317;51.660;5.824;2023-03-16T08:09:32;101497.69;;;9.17;50.89
48527;BME280;34317;51.660;5.824;2023-03-16T08:12:05;101492.38;;;9.19;50.61
48527;BME280;34317;51.660;5.824;2023-03-16T08:14:35;101487.91;;;9.21;50.70
48527;BME280;34317;51.660;5.824;2023-03-16T08:17:10;101486.09;;;9.23;50.80
48527;BME280;34317;51.660;5.824;2023-03-16T08:19:39;101487.84;;;9.24;50.85
48527;BME280;34317;51.660;5.824;2023-03-16T08:22:08;101479.88;;;9.25;50.57
48527;BME280;34317;51.660;5.824;2023-03-16T08:24:40;101478.91;;;9.28;50.65
48527;BME280;34317;51.660;5.824;2023-03-16T08:27:10;101469.13;;;9.30;50.96
48527;BME280;34317;51.660;5.824;2023-03-16T08:29:40;101472.53;;;9.35;51.09
48527;BME280;34317;51.660;5.824;2023-03-16T08:32:12;101479.41;;;9.41;51.11
48527;BME280;34317;51.660;5.824;2023-03-16T08:34:42;101481.00;;;9.46;50.82
48527;BME280;34317;51.660;5.824;2023-03-16T08:37:10;101479.13;;;9.50;50.95
48527;BME280;34317;51.660;5.824;2023-03-16T08:39:39;101479.91;;;9.53;50.77
48527;BME280;34317;51.660;5.824;2023-03-16T08:42:10;101475.41;;;9.57;50.85
48527;BME280;34317;51.660;5.824;2023-03-16T08:44:42;101456.72;;;9.62;51.06
48527;BME280;34317;51.660;5.824;2023-03-16T08:47:10;101474.13;;;9.69;50.93
48527;BME280;34317;51.660;5.824;2023-03-16T08:49:41;101463.34;;;9.75;51.28
48527;BME280;34317;51.660;5.824;2023-03-16T08:52:11;101463.06;;;9.84;51.13
48527;BME280;34317;51.660;5.824;2023-03-16T08:54:39;101467.31;;;9.90;50.86
48527;BME280;34317;51.660;5.824;2023-03-16T08:57:18;101464.53;;;9.94;50.81
48527;BME280;34317;51.660;5.824;2023-03-16T08:59:45;101471.44;;;9.99;50.80
48527;BME280;34317;51.660;5.824;2023-03-16T09:02:12;101461.53;;;10.04;50.98
48527;BME280;34317;51.660;5.824;2023-03-16T09:04:40;101462.19;;;10.12;50.95
48527;BME280;34317;51.660;5.824;2023-03-16T09:07:08;101464.63;;;10.18;50.79
48527;BME280;34317;51.660;5.824;2023-03-16T09:09:36;101465.22;;;10.26;50.97
48527;BME280;34317;51.660;5.824;2023-03-16T09:12:03;101456.19;;;10.33;50.92
48527;BME280;34317;51.660;5.824;2023-03-16T09:14:31;101457.69;;;10.41;50.78
48527;BME280;34317;51.660;5.824;2023-03-16T09:16:59;101457.47;;;10.47;50.46
48527;BME280;34317;51.660;5.824;2023-03-16T09:19:26;101462.59;;;10.53;50.77
48527;BME280;34317;51.660;5.824;2023-03-16T09:22:00;101457.06;;;10.59;50.54
48527;BME280;34317;51.660;5.824;2023-03-16T09:24:27;101451.53;;;10.65;50.62
48527;BME280;34317;51.660;5.824;2023-03-16T09:26:55;101449.59;;;10.70;50.60
48527;BME280;34317;51.660;5.824;2023-03-16T09:29:22;101452.13;;;10.74;50.45
48527;BME280;34317;51.660;5.824;2023-03-16T09:31:50;101451.13;;;10.78;50.27
48527;BME280;34317;51.660;5.824;2023-03-16T09:34:17;101451.00;;;10.81;50.11
48527;BME280;34317;51.660;5.824;2023-03-16T09:36:44;101447.31;;;10.85;50.28
48527;BME280;34317;51.660;5.824;2023-03-16T09:39:12;101454.25;;;10.89;50.14
48527;BME280;34317;51.660;5.824;2023-03-16T09:41:56;101446.97;;;10.94;50.25
48527;BME280;34317;51.660;5.824;2023-03-16T09:47:09;101441.22;;;11.06;50.35
48527;BME280;34317;51.660;5.824;2023-03-16T09:49:44;101437.44;;;11.14;50.31
48527;BME280;34317;51.660;5.824;2023-03-16T09:52:22;101447.78;;;11.20;50.28
48527;BME280;34317;51.660;5.824;2023-03-16T09:55:03;101441.28;;;11.28;50.38
48527;BME280;34317;51.660;5.824;2023-03-16T09:57:35;101432.03;;;11.39;50.19
48527;BME280;34317;51.660;5.824;2023-03-16T10:00:24;101437.84;;;11.48;50.20
48527;BME280;34317;51.660;5.824;2023-03-16T10:05:41;101438.13;;;11.64;50.17
48527;BME280;34317;51.660;5.824;2023-03-16T10:08:20;101435.16;;;11.72;50.05
48527;BME280;34317;51.660;5.824;2023-03-16T10:19:16;101407.09;;;12.09;49.84
48527;BME280;34317;51.660;5.824;2023-03-16T10:21:45;101408.44;;;12.19;49.79
48527;BME280;34317;51.660;5.824;2023-03-16T10:24:42;101410.72;;;12.29;49.76
48527;BME280;34317;51.660;5.824;2023-03-16T10:27:17;101395.19;;;12.40;49.65
48527;BME280;34317;51.660;5.824;2023-03-16T10:29:46;101394.63;;;12.52;49.84
48527;BME280;34317;51.660;5.824;2023-03-16T10:32:15;101392.22;;;12.66;49.67
48527;BME280;34317;51.660;5.824;2023-03-16T10:34:47;101391.53;;;12.82;49.61
48527;BME280;34317;51.660;5.824;2023-03-16T10:37:18;101397.06;;;12.96;49.45
48527;BME280;34317;51.660;5.824;2023-03-16T10:39:47;101390.38;;;13.07;49.18
48527;BME280;34317;51.660;5.824;2023-03-16T10:42:16;101391.69;;;13.17;49.10
48527;BME280;34317;51.660;5.824;2023-03-16T10:44:44;101392.13;;;13.27;48.96
48527;BME280;34317;51.660;5.824;2023-03-16T10:47:18;101389.13;;;13.34;48.81
48527;BME280;34317;51.660;5.824;2023-03-16T10:49:45;101384.16;;;13.46;48.82
48527;BME280;34317;51.660;5.824;2023-03-16T10:52:19;101392.47;;;13.57;48.63
48527;BME280;34317;51.660;5.824;2023-03-16T10:54:53;101376.97;;;13.65;48.49
48527;BME280;34317;51.660;5.824;2023-03-16T11:02:39;101373.72;;;13.95;48.48
48527;BME280;34317;51.660;5.824;2023-03-16T11:05:34;101367.78;;;14.07;48.20
48527;BME280;34317;51.660;5.824;2023-03-16T11:10:33;101364.44;;;14.37;48.12
48527;BME280;34317;51.660;5.824;2023-03-16T11:13:15;101361.16;;;14.49;48.41
48527;BME280;34317;51.660;5.824;2023-03-16T11:15:50;101364.91;;;14.63;47.77
48527;BME280;34317;51.660;5.824;2023-03-16T11:18:33;101355.63;;;14.70;47.46
48527;BME280;34317;51.660;5.824;2023-03-16T11:21:12;101355.13;;;14.79;47.30
48527;BME280;34317;51.660;5.824;2023-03-16T11:23:47;101347.56;;;14.87;47.05
48527;BME280;34317;51.660;5.824;2023-03-16T11:26:24;101343.78;;;14.91;46.63
48527;BME280;34317;51.660;5.824;2023-03-16T11:29:15;101326.66;;;14.95;46.76
48527;BME280;34317;51.660;5.824;2023-03-16T11:31:50;101322.78;;;15.01;46.55
48527;BME280;34317;51.660;5.824;2023-03-16T11:34:28;101322.53;;;15.06;46.45
48527;BME280;34317;51.660;5.824;2023-03-16T11:37:44;101326.75;;;15.10;46.36
48527;BME280;34317;51.660;5.824;2023-03-16T11:40:19;101318.69;;;15.11;45.96
48527;BME280;34317;51.660;5.824;2023-03-16T11:48:14;101301.47;;;15.17;45.97
48527;BME280;34317;51.660;5.824;2023-03-16T11:51:03;101303.16;;;15.18;45.88
48527;BME280;34317;51.660;5.824;2023-03-16T11:56:20;101294.38;;;15.16;45.61
48527;BME280;34317;51.660;5.824;2023-03-16T11:59:01;101298.03;;;15.15;45.94
48527;BME280;34317;51.660;5.824;2023-03-16T12:05:08;101294.91;;;15.23;45.65
48527;BME280;34317;51.660;5.824;2023-03-16T12:10:22;101284.06;;;15.26;45.49
48527;BME280;34317;51.660;5.824;2023-03-16T12:15:42;101275.41;;;15.36;45.53
48527;BME280;34317;51.660;5.824;2023-03-16T12:18:13;101276.78;;;15.44;45.40
48527;BME280;34317;51.660;5.824;2023-03-16T12:20:53;101279.09;;;15.50;45.21
48527;BME280;34317;51.660;5.824;2023-03-16T12:23:28;101261.97;;;15.54;45.34
48527;BME280;34317;51.660;5.824;2023-03-16T12:25:58;101263.50;;;15.58;45.14
48527;BME280;34317;51.660;5.824;2023-03-16T12:28:28;101252.63;;;15.61;44.93
48527;BME280;34317;51.660;5.824;2023-03-16T12:40:01;101231.72;;;15.84;45.02
48527;BME280;34317;51.660;5.824;2023-03-16T12:45:30;101236.59;;;16.06;44.77
48527;BME280;34317;51.660;5.824;2023-03-16T12:50:25;101217.59;;;16.25;44.80
48527;BME280;34317;51.660;5.824;2023-03-16T12:52:53;101208.81;;;16.37;44.66
48527;BME280;34317;51.660;5.824;2023-03-16T12:58:04;101207.63;;;16.55;44.08
48527;BME280;34317;51.660;5.824;2023-03-16T13:00:38;101194.81;;;16.61;44.12
48527;BME280;34317;51.660;5.824;2023-03-16T13:03:14;101191.56;;;16.70;44.01
48527;BME280;34317;51.660;5.824;2023-03-16T13:05:50;101190.19;;;16.77;43.76
48527;BME280;34317;51.660;5.824;2023-03-16T13:08:19;101184.47;;;16.83;43.56
48527;BME280;34317;51.660;5.824;2023-03-16T13:11:10;101164.56;;;16.87;43.31
48527;BME280;34317;51.660;5.824;2023-03-16T13:13:50;101162.47;;;16.92;43.27
48527;BME280;34317;51.660;5.824;2023-03-16T13:16:32;101155.19;;;16.95;43.13
48527;BME280;34317;51.660;5.824;2023-03-16T13:19:25;101158.22;;;17.03;43.18
48527;BME280;34317;51.660;5.824;2023-03-16T13:22:26;101148.59;;;17.13;43.16
48527;BME280;34317;51.660;5.824;2023-03-16T13:27:43;101143.69;;;17.32;42.86
48527;BME280;34317;51.660;5.824;2023-03-16T13:30:20;101143.28;;;17.39;42.74
48527;BME280;34317;51.660;5.824;2023-03-16T13:32:53;101136.66;;;17.44;42.44
48527;BME280;34317;51.660;5.824;2023-03-16T13:35:25;101145.22;;;17.49;42.30
48527;BME280;34317;51.660;5.824;2023-03-16T13:37:53;101145.66;;;17.56;42.13
48527;BME280;34317;51.660;5.824;2023-03-16T13:40:25;101144.25;;;17.63;41.71
48527;BME280;34317;51.660;5.824;2023-03-16T13:42:56;101136.75;;;17.68;41.64
48527;BME280;34317;51.660;5.824;2023-03-16T13:45:31;101137.28;;;17.74;41.10
48527;BME280;34317;51.660;5.824;2023-03-16T13:47:59;101120.75;;;17.80;41.26
48527;BME280;34317;51.660;5.824;2023-03-16T13:50:32;101122.06;;;17.87;40.91
48527;BME280;34317;51.660;5.824;2023-03-16T13:53:01;101122.41;;;17.95;40.91
48527;BME280;34317;51.660;5.824;2023-03-16T13:55:32;101119.28;;;18.01;40.47
48527;BME280;34317;51.660;5.824;2023-03-16T13:58:01;101120.75;;;18.05;40.28
48527;BME280;34317;51.660;5.824;2023-03-16T14:00:34;101113.47;;;18.07;40.22
48527;BME280;34317;51.660;5.824;2023-03-16T14:03:13;101101.53;;;18.12;39.79
48527;BME280;34317;51.660;5.824;2023-03-16T14:05:42;101106.81;;;18.13;39.72
48527;BME280;34317;51.660;5.824;2023-03-16T14:08:19;101103.28;;;18.13;39.96
48527;BME280;34317;51.660;5.824;2023-03-16T14:10:47;101092.19;;;18.17;39.80
48527;BME280;34317;51.660;5.824;2023-03-16T14:13:32;101079.44;;;18.21;39.49
48527;BME280;34317;51.660;5.824;2023-03-16T14:16:09;101071.38;;;18.21;39.39
48527;BME280;34317;51.660;5.824;2023-03-16T14:18:46;101072.88;;;18.25;39.36
48527;BME280;34317;51.660;5.824;2023-03-16T14:21:21;101073.50;;;18.28;39.24
48527;BME280;34317;51.660;5.824;2023-03-16T14:23:55;101069.50;;;18.34;39.21
48527;BME280;34317;51.660;5.824;2023-03-16T14:26:23;101059.09;;;18.42;39.55